createdAt,value
2018-09-12T00:02:05.624Z,19.17
2018-09-12T00:04:33.364Z,19.22
2018-09-12T00:07:02.262Z,19.23
2018-09-12T00:09:30.009Z,19.26
2018-09-12T00:11:58.344Z,19.28
2018-09-12T00:14:27.248Z,19.25
2018-09-12T00:16:54.982Z,19.23
2018-09-12T00:19:24.799Z,19.21
2018-09-12T00:21:52.536Z,19.24
2018-09-12T00:24:21.430Z,19.26
2018-09-12T00:26:49.169Z,19.28
2018-09-12T00:29:18.088Z,19.29
2018-09-12T00:31:45.818Z,19.25
2018-09-12T00:34:14.736Z,19.25
2018-09-12T00:36:43.042Z,19.25
2018-09-12T00:39:10.785Z,19.24
2018-09-12T00:41:39.685Z,19.27
2018-09-12T00:44:07.554Z,19.27
2018-09-12T00:46:36.411Z,19.28
2018-09-12T00:49:04.158Z,19.33
2018-09-12T00:51:33.071Z,19.33
2018-09-12T00:54:01.415Z,19.34
2018-09-12T00:56:29.754Z,19.31
2018-09-12T00:58:57.489Z,19.28
2018-09-12T01:01:25.812Z,19.34
2018-09-12T01:03:54.168Z,19.35
2018-09-12T01:06:23.108Z,19.36
2018-09-12T01:08:50.855Z,19.37
2018-09-12T01:11:19.758Z,19.33
2018-09-12T01:13:47.493Z,19.34
2018-09-12T01:16:16.419Z,19.34
2018-09-12T01:18:44.717Z,19.35
2018-09-12T01:21:12.454Z,19.36
2018-09-12T01:23:40.793Z,19.42
2018-09-12T01:26:09.690Z,19.42
2018-09-12T01:28:38.829Z,19.44
2018-09-12T01:31:07.159Z,19.38
2018-09-12T01:33:35.479Z,19.40
2018-09-12T01:36:03.803Z,19.46
2018-09-12T01:38:32.135Z,19.47
2018-09-12T01:41:00.465Z,19.47
2018-09-12T01:43:28.775Z,19.48
2018-09-12T01:45:57.371Z,19.46
2018-09-12T01:48:25.470Z,19.50
2018-09-12T01:50:53.230Z,19.54
2018-09-12T01:53:22.361Z,19.55
2018-09-12T01:55:50.453Z,19.56
2018-09-12T01:58:18.205Z,19.60
2018-09-12T02:00:47.105Z,19.59
2018-09-12T02:03:15.445Z,19.56
2018-09-12T02:05:43.761Z,19.52
2018-09-12T02:08:12.077Z,19.50
2018-09-12T02:10:40.395Z,19.45
2018-09-12T02:13:08.150Z,19.49
2018-09-12T02:15:37.051Z,19.45
2018-09-12T02:18:04.791Z,19.44
2018-09-12T02:20:33.108Z,19.40
2018-09-12T02:23:02.013Z,19.40
2018-09-12T02:25:30.328Z,19.40
2018-09-12T02:27:58.641Z,19.38
2018-09-12T02:30:26.968Z,19.39
2018-09-12T02:32:55.298Z,19.38
2018-09-12T02:35:23.611Z,19.40
2018-09-12T02:37:51.932Z,19.40
2018-09-12T02:40:19.671Z,19.43
2018-09-12T02:42:47.999Z,19.45
2018-09-12T02:45:16.322Z,19.47
2018-09-12T02:47:45.293Z,19.46
2018-09-12T02:50:13.029Z,19.46
2018-09-12T02:52:41.370Z,19.48
2018-09-12T02:55:09.665Z,19.51
2018-09-12T02:57:38.562Z,19.47
2018-09-12T03:00:06.887Z,19.49
2018-09-12T03:02:34.632Z,19.48
2018-09-12T03:05:02.958Z,19.48
2018-09-12T03:07:31.282Z,19.46
2018-09-12T03:10:00.179Z,19.47
2018-09-12T03:12:27.918Z,19.47
2018-09-12T03:14:56.814Z,19.37
2018-09-12T03:17:25.140Z,19.30
2018-09-12T03:19:52.875Z,19.26
2018-09-12T03:22:21.777Z,19.29
2018-09-12T03:24:49.526Z,19.32
2018-09-12T03:27:18.421Z,19.32
2018-09-12T03:29:46.172Z,19.28
2018-09-12T03:32:15.074Z,19.30
2018-09-12T03:34:43.421Z,19.29
2018-09-12T03:37:11.160Z,19.29
2018-09-12T03:39:40.078Z,19.26
2018-09-12T03:42:08.395Z,19.31
2018-09-12T03:44:36.710Z,19.32
2018-09-12T03:47:05.027Z,19.31
2018-09-12T03:49:32.804Z,19.31
2018-09-12T03:52:01.717Z,19.33
2018-09-12T03:54:30.038Z,19.38
2018-09-12T03:56:57.784Z,19.41
2018-09-12T03:59:26.114Z,19.42
2018-09-12T04:01:55.015Z,19.43
2018-09-12T04:04:23.344Z,19.42
2018-09-12T04:06:51.078Z,19.41
2018-09-12T04:09:19.978Z,19.43
2018-09-12T04:11:47.732Z,19.42
2018-09-12T04:14:16.063Z,19.38
2018-09-12T04:16:44.419Z,19.38
2018-09-12T04:19:12.705Z,19.39
2018-09-12T04:21:41.849Z,19.37
2018-09-12T04:24:09.363Z,19.39
2018-09-12T04:26:37.666Z,19.41
2018-09-12T04:29:06.564Z,19.42
2018-09-12T04:31:34.889Z,19.43
2018-09-12T04:34:03.201Z,19.41
2018-09-12T04:36:30.944Z,19.41
2018-09-12T04:38:59.840Z,19.42
2018-09-12T04:41:28.170Z,19.41
2018-09-12T04:43:55.919Z,19.44
2018-09-12T04:46:24.835Z,19.40
2018-09-12T04:48:53.155Z,19.40
2018-09-12T04:51:21.528Z,19.40
2018-09-12T04:53:49.829Z,19.40
2018-09-12T04:56:18.181Z,19.41
2018-09-12T04:58:46.999Z,19.44
2018-09-12T05:01:14.737Z,19.46
2018-09-12T05:03:43.646Z,19.47
2018-09-12T05:06:11.385Z,19.42
2018-09-12T05:08:40.280Z,19.42
2018-09-12T05:11:08.040Z,19.39
2018-09-12T05:13:36.957Z,19.42
2018-09-12T05:16:05.328Z,19.46
2018-09-12T05:18:33.638Z,19.48
2018-09-12T05:21:01.375Z,19.52
2018-09-12T05:23:29.709Z,19.58
2018-09-12T05:25:58.613Z,19.64
2018-09-12T05:28:26.977Z,19.70
2018-09-12T05:30:55.754Z,19.73
2018-09-12T05:33:24.567Z,19.73
2018-09-12T05:35:52.896Z,19.74
2018-09-12T05:38:21.221Z,19.75
2018-09-12T05:40:49.539Z,19.75
2018-09-12T05:43:17.865Z,19.81
2018-09-12T05:45:46.204Z,19.80
2018-09-12T05:48:13.957Z,19.89
2018-09-12T05:50:42.278Z,19.94
2018-09-12T05:53:11.144Z,20.00
2018-09-12T05:55:38.995Z,20.04
2018-09-12T05:58:07.905Z,20.08
2018-09-12T06:00:36.237Z,20.12
2018-09-12T06:03:04.565Z,20.16
2018-09-12T06:05:32.325Z,20.19
2018-09-12T06:08:00.666Z,20.19
2018-09-12T06:10:29.007Z,20.23
2018-09-12T06:12:57.917Z,20.25
2018-09-12T06:15:26.291Z,20.22
2018-09-12T06:17:54.633Z,20.22
2018-09-12T06:20:22.393Z,20.23
2018-09-12T06:22:51.540Z,20.30
2018-09-12T06:25:19.069Z,20.38
2018-09-12T06:27:47.410Z,20.38
2018-09-12T06:30:16.329Z,20.45
2018-09-12T06:32:44.664Z,20.48
2018-09-12T06:35:13.032Z,20.48
2018-09-12T06:37:41.379Z,20.55
2018-09-12T06:40:09.707Z,20.65
2018-09-12T06:42:38.041Z,20.72
2018-09-12T06:45:05.809Z,20.72
2018-09-12T06:47:34.147Z,20.82
2018-09-12T06:50:03.059Z,20.87
2018-09-12T06:52:31.385Z,20.98
2018-09-12T06:54:59.735Z,21.11
2018-09-12T06:57:28.701Z,21.15
2018-09-12T06:59:56.471Z,21.17
2018-09-12T07:02:24.811Z,21.23
2018-09-12T07:04:53.153Z,21.25
2018-09-12T07:07:20.897Z,21.27
2018-09-12T07:09:49.850Z,21.32
2018-09-12T07:12:18.192Z,21.39
2018-09-12T07:14:46.510Z,21.40
2018-09-12T07:17:14.852Z,21.40
2018-09-12T07:19:43.198Z,21.39
2018-09-12T07:22:11.818Z,21.40
2018-09-12T07:24:39.913Z,21.41
2018-09-12T07:27:08.240Z,21.41
2018-09-12T07:29:35.993Z,21.44
2018-09-12T07:32:04.892Z,21.50
2018-09-12T07:34:33.217Z,21.45
2018-09-12T07:37:01.535Z,21.51
2018-09-12T07:39:30.069Z,21.50
2018-09-12T07:44:52.964Z,21.42
2018-09-12T07:47:38.115Z,21.41
2018-09-12T07:49:58.757Z,21.48
2018-09-12T07:52:27.137Z,21.65
2018-09-12T07:54:55.879Z,21.70
2018-09-12T07:57:23.623Z,21.73
2018-09-12T07:59:52.607Z,21.81
2018-09-12T08:02:21.015Z,21.92
2018-09-12T08:04:49.397Z,22.03
2018-09-12T08:07:17.725Z,22.10
2018-09-12T08:09:45.482Z,22.07
2018-09-12T08:12:14.439Z,22.00
2018-09-12T08:14:44.172Z,21.98
2018-09-12T08:17:11.300Z,21.98
2018-09-12T08:19:40.942Z,21.96
2018-09-12T08:22:08.232Z,21.93
2018-09-12T08:24:36.374Z,21.84
2018-09-12T08:27:04.763Z,21.73
2018-09-12T08:29:33.109Z,21.75
2018-09-12T08:32:01.486Z,21.83
2018-09-12T08:34:29.831Z,21.85
2018-09-12T08:36:58.186Z,21.77
2018-09-12T08:39:26.520Z,21.83
2018-09-12T08:41:54.963Z,21.85
2018-09-12T08:44:23.274Z,21.85
2018-09-12T08:46:51.033Z,21.80
2018-09-12T08:49:19.998Z,21.77
2018-09-12T08:51:48.339Z,21.75
2018-09-12T08:54:16.693Z,21.77
2018-09-12T08:56:45.122Z,21.71
2018-09-12T08:59:12.849Z,21.76
2018-09-12T09:01:42.399Z,21.84
2018-09-12T09:04:13.943Z,21.87
2018-09-12T09:06:41.793Z,21.83
2018-09-12T09:09:10.722Z,21.78
2018-09-12T09:11:39.107Z,21.75
2018-09-12T09:14:07.448Z,21.71
2018-09-12T09:16:35.777Z,21.64
2018-09-12T09:19:04.117Z,21.60
2018-09-12T09:21:32.457Z,21.47
2018-09-12T09:24:00.762Z,21.36
2018-09-12T09:26:29.139Z,21.35
2018-09-12T09:28:56.873Z,21.48
2018-09-12T09:31:25.777Z,21.61
2018-09-12T09:33:54.135Z,21.63
2018-09-12T09:36:22.521Z,21.66
2018-09-12T09:38:50.946Z,21.69
2018-09-12T09:41:19.252Z,21.65
2018-09-12T09:43:47.582Z,21.56
2018-09-12T09:46:15.921Z,21.38
2018-09-12T09:48:44.270Z,21.37
2018-09-12T09:51:12.582Z,21.14
2018-09-12T09:53:40.900Z,20.99
2018-09-12T09:56:09.354Z,20.83
2018-09-12T09:58:37.727Z,20.82
2018-09-12T10:01:05.466Z,20.79
2018-09-12T10:03:34.411Z,20.79
2018-09-12T10:06:02.338Z,20.76
2018-09-12T10:08:31.083Z,20.70
2018-09-12T10:11:00.038Z,20.39
2018-09-12T10:13:28.380Z,20.35
2018-09-12T10:15:56.688Z,20.48
2018-09-12T10:18:25.011Z,20.50
2018-09-12T10:20:53.425Z,20.55
2018-09-12T10:23:21.785Z,20.37
2018-09-12T10:25:50.160Z,20.17
2018-09-12T10:28:18.501Z,19.97
2018-09-12T10:30:46.341Z,20.00
2018-09-12T10:33:15.161Z,20.11
2018-09-12T10:35:42.904Z,20.26
2018-09-12T10:38:11.820Z,20.41
2018-09-12T10:40:40.191Z,20.31
2018-09-12T10:43:07.948Z,20.34
2018-09-12T10:45:36.796Z,20.34
2018-09-12T10:48:05.320Z,20.43
2018-09-12T10:50:33.639Z,20.35
2018-09-12T10:53:01.980Z,20.35
2018-09-12T10:55:29.730Z,20.25
2018-09-12T10:57:58.634Z,20.25
2018-09-12T11:00:26.857Z,20.34
2018-09-12T11:02:55.669Z,20.47
2018-09-12T11:05:24.006Z,20.59
2018-09-12T11:07:52.322Z,20.55
2018-09-12T11:10:20.716Z,20.53
2018-09-12T11:12:49.056Z,20.43
2018-09-12T11:15:17.410Z,20.14
2018-09-12T11:17:45.711Z,19.92
2018-09-12T11:20:14.061Z,19.79
2018-09-12T11:22:42.383Z,19.85
2018-09-12T11:25:10.706Z,19.81
2018-09-12T11:27:39.073Z,19.84
2018-09-12T11:30:07.401Z,19.74
2018-09-12T11:32:35.740Z,19.64
2018-09-12T11:35:04.087Z,19.73
2018-09-12T11:37:46.158Z,19.79
2018-09-12T11:40:14.071Z,19.75
2018-09-12T11:42:42.332Z,19.79
2018-09-12T11:45:11.272Z,19.88
2018-09-12T11:47:39.650Z,19.80
2018-09-12T11:50:08.060Z,19.80
2018-09-12T11:52:36.343Z,19.78
2018-09-12T11:55:04.928Z,19.55
2018-09-12T11:57:33.014Z,19.42
2018-09-12T12:00:01.358Z,19.41
2018-09-12T12:02:29.700Z,19.37
2018-09-12T12:04:58.368Z,19.29
2018-09-12T12:07:27.314Z,19.27
2018-09-12T12:09:55.884Z,19.35
2018-09-12T12:12:24.334Z,19.44
2018-09-12T12:14:53.676Z,19.49
2018-09-12T12:17:21.492Z,19.50
2018-09-12T12:19:50.586Z,19.47
2018-09-12T12:22:18.684Z,19.31
2018-09-12T12:24:46.436Z,19.26
2018-09-12T12:27:14.758Z,19.28
2018-09-12T12:29:43.070Z,19.26
2018-09-12T12:32:11.968Z,19.21
2018-09-12T12:34:40.297Z,19.14
2018-09-12T12:37:08.038Z,19.12
2018-09-12T12:39:36.940Z,19.17
2018-09-12T12:42:05.262Z,19.07
2018-09-12T12:44:33.586Z,18.87
2018-09-12T12:47:01.325Z,18.70
2018-09-12T12:49:30.241Z,18.56
2018-09-12T12:51:57.977Z,18.57
2018-09-12T12:54:26.285Z,18.62
2018-09-12T12:56:54.617Z,18.50
2018-09-12T12:59:23.297Z,18.43
2018-09-12T13:01:51.614Z,18.43
2018-09-12T13:04:20.025Z,18.40
2018-09-12T13:06:48.291Z,18.30
2018-09-12T13:09:17.202Z,18.22
2018-09-12T13:11:44.939Z,18.10
2018-09-12T13:14:13.849Z,18.04
2018-09-12T13:16:42.179Z,18.02
2018-09-12T13:19:10.562Z,18.03
2018-09-12T13:21:39.091Z,17.87
2018-09-12T13:24:06.645Z,17.82
2018-09-12T13:26:35.579Z,17.86
2018-09-12T13:29:03.983Z,17.82
2018-09-12T13:31:32.307Z,17.91
2018-09-12T13:34:00.147Z,17.99
2018-09-12T13:36:29.079Z,17.96
2018-09-12T13:38:57.435Z,17.73
2018-09-12T13:41:25.921Z,17.62
2018-09-12T13:43:54.272Z,17.60
2018-09-12T13:46:22.618Z,17.58
2018-09-12T13:48:50.945Z,17.50
2018-09-12T13:51:19.300Z,17.50
2018-09-12T13:53:47.651Z,17.45
2018-09-12T13:56:16.193Z,17.40
2018-09-12T13:58:44.535Z,17.49
2018-09-12T14:01:12.646Z,17.55
2018-09-12T14:03:40.385Z,17.48
2018-09-12T14:06:09.427Z,17.48
2018-09-12T14:11:30.529Z,17.61
2018-09-12T14:13:58.899Z,17.69
2018-09-12T14:16:27.258Z,17.74
2018-09-12T14:18:55.590Z,17.77
2018-09-12T14:21:24.137Z,17.67
2018-09-12T14:23:53.062Z,17.63
2018-09-12T14:26:22.291Z,17.62
2018-09-12T14:28:51.717Z,17.60
2018-09-12T14:31:19.612Z,17.58
2018-09-12T14:33:48.418Z,17.47
2018-09-12T14:36:16.755Z,17.43
2018-09-12T14:38:45.117Z,17.43
2018-09-12T14:41:22.520Z,17.35
2018-09-12T14:43:50.856Z,17.34
2018-09-12T14:46:19.182Z,17.32
2018-09-12T14:48:47.522Z,17.21
2018-09-12T14:51:15.844Z,17.12
2018-09-12T14:53:44.180Z,17.02
2018-09-12T14:56:12.514Z,16.92
2018-09-12T14:58:40.857Z,16.93
2018-09-12T15:01:09.190Z,16.90
2018-09-12T15:03:37.521Z,16.84
2018-09-12T15:06:05.871Z,16.78
2018-09-12T15:08:33.628Z,16.72
2018-09-12T15:11:02.533Z,16.71
2018-09-12T15:13:30.869Z,16.72
2018-09-12T15:15:59.209Z,16.73
2018-09-12T15:18:27.538Z,16.70
2018-09-12T15:20:55.902Z,16.74
2018-09-12T15:23:23.640Z,16.80
2018-09-12T15:25:52.568Z,16.77
2018-09-12T15:28:20.905Z,16.74
2018-09-12T15:30:48.646Z,16.82
2018-09-12T15:33:17.153Z,16.84
2018-09-12T15:35:45.362Z,16.81
2018-09-12T15:38:13.701Z,16.80
2018-09-12T15:40:42.053Z,16.84
2018-09-12T15:43:10.976Z,16.73
2018-09-12T15:45:39.316Z,16.72
2018-09-12T15:48:07.659Z,16.70
2018-09-12T15:50:36.005Z,16.63
2018-09-12T15:53:05.060Z,16.59
2018-09-12T15:55:32.700Z,16.62
2018-09-12T15:58:00.510Z,16.67
2018-09-12T16:00:29.434Z,16.55
2018-09-12T16:02:57.793Z,16.56
2018-09-12T16:05:26.131Z,16.56
2018-09-12T16:07:55.171Z,16.59
2018-09-12T16:10:23.797Z,16.54
2018-09-12T16:12:52.351Z,16.58
2018-09-12T16:15:20.552Z,16.54
2018-09-12T16:17:48.217Z,16.54
2018-09-12T16:20:17.144Z,16.64
2018-09-12T16:22:45.500Z,16.60
2018-09-12T16:25:13.256Z,16.57
2018-09-12T16:27:41.642Z,16.56
2018-09-12T16:30:10.558Z,16.49
2018-09-12T16:32:39.445Z,16.50
2018-09-12T16:35:07.697Z,16.55
2018-09-12T16:37:36.041Z,16.60
2018-09-12T16:40:04.390Z,16.57
2018-09-12T16:42:32.100Z,16.52
2018-09-12T16:45:01.038Z,16.49
2018-09-12T16:47:29.361Z,16.44
2018-09-12T16:49:57.110Z,16.44
2018-09-12T16:52:26.042Z,16.47
2018-09-12T16:54:54.374Z,16.50
2018-09-12T16:57:22.785Z,16.52
2018-09-12T16:59:51.163Z,16.54
2018-09-12T17:02:19.505Z,16.55
2018-09-12T17:04:47.879Z,16.56
2018-09-12T17:07:16.241Z,16.59
2018-09-12T17:09:44.014Z,16.65
2018-09-12T17:12:13.160Z,16.70
2018-09-12T17:14:41.737Z,16.74
2018-09-12T17:17:10.925Z,16.79
2018-09-12T17:19:39.739Z,16.79
2018-09-12T17:31:01.184Z,16.90
2018-09-12T17:33:28.949Z,16.88
2018-09-12T17:35:57.868Z,16.83
2018-09-12T17:38:26.203Z,16.85
2018-09-12T17:40:54.542Z,16.87
2018-09-12T17:43:22.875Z,16.86
2018-09-12T17:45:50.628Z,16.88
2018-09-12T17:48:19.930Z,16.86
2018-09-12T17:50:51.774Z,16.91
2018-09-12T17:53:19.820Z,17.00
2018-09-12T17:55:48.221Z,17.03
2018-09-12T17:58:16.508Z,17.09
2018-09-12T18:00:44.857Z,17.17
2018-09-12T18:03:13.383Z,17.25
2018-09-12T18:08:15.827Z,17.05
2018-09-12T18:10:45.936Z,16.87
2018-09-12T18:18:51.798Z,16.69
2018-09-12T18:21:20.856Z,16.69
2018-09-12T18:23:52.303Z,16.65
2018-09-12T18:26:23.265Z,16.62
2018-09-12T18:28:52.410Z,16.60
2018-09-12T18:31:22.569Z,16.62
2018-09-12T18:37:03.107Z,16.58
2018-09-12T18:45:24.413Z,16.64
2018-09-12T18:47:52.983Z,16.65
2018-09-12T18:50:20.516Z,16.65
2018-09-12T18:52:49.436Z,16.66
2018-09-12T18:55:17.782Z,16.66
2018-09-12T18:57:45.542Z,16.66
2018-09-12T19:00:15.441Z,16.62
2018-09-12T19:02:43.779Z,16.62
2018-09-12T19:05:12.105Z,16.64
2018-09-12T19:07:39.921Z,16.71
2018-09-12T19:10:09.099Z,16.73
2018-09-12T19:12:37.240Z,16.73
2018-09-12T19:15:05.589Z,16.68
2018-09-12T19:17:33.955Z,16.62
2018-09-12T19:20:02.576Z,16.62
2018-09-12T19:22:30.855Z,16.60
2018-09-12T19:24:59.283Z,16.59
2018-09-12T19:27:27.583Z,16.59
2018-09-12T19:29:55.971Z,16.57
2018-09-12T19:32:24.752Z,16.57
2018-09-12T19:34:52.961Z,16.54
2018-09-12T19:37:21.892Z,16.48
2018-09-12T19:39:50.268Z,16.47
2018-09-12T19:42:22.372Z,16.44
2018-09-12T19:44:50.689Z,16.47
2018-09-12T19:47:19.772Z,16.47
2018-09-12T19:49:47.518Z,16.49
2018-09-12T19:52:15.927Z,16.56
2018-09-12T19:54:43.776Z,16.57
2018-09-12T19:57:12.893Z,16.61
2018-09-12T19:59:41.368Z,16.64
2018-09-12T20:02:09.789Z,16.67
2018-09-12T20:04:38.134Z,16.68
2018-09-12T20:07:06.614Z,16.66
2018-09-12T20:09:34.914Z,16.64
2018-09-12T20:12:02.750Z,16.63
2018-09-12T20:14:33.590Z,16.60
2018-09-12T20:17:01.930Z,16.58
2018-09-12T20:19:30.490Z,16.58
2018-09-12T20:21:58.648Z,16.53
2018-09-12T20:24:26.482Z,16.48
2018-09-12T20:26:55.378Z,16.49
2018-09-12T20:29:23.756Z,16.49
2018-09-12T20:31:52.219Z,16.48
2018-09-12T20:34:21.241Z,16.54
2018-09-12T20:36:49.270Z,16.53
2018-09-12T20:39:17.603Z,16.53
2018-09-12T20:41:45.957Z,16.51
2018-09-12T20:44:14.317Z,16.48
2018-09-12T20:46:42.682Z,16.50
2018-09-12T20:49:11.030Z,16.58
2018-09-12T20:51:39.370Z,16.66
2018-09-12T20:54:07.956Z,16.72
2018-09-12T20:56:35.481Z,16.73
2018-09-12T20:59:04.406Z,16.73
2018-09-12T21:01:32.176Z,16.71
2018-09-12T21:04:01.097Z,16.69
2018-09-12T21:06:29.430Z,16.56
2018-09-12T21:08:57.173Z,16.46
2018-09-12T21:11:26.094Z,16.37
2018-09-12T21:13:54.443Z,16.28
2018-09-12T21:16:22.194Z,16.19
2018-09-12T21:18:51.104Z,16.19
2018-09-12T21:21:19.417Z,16.16
2018-09-12T21:23:47.734Z,16.18
2018-09-12T21:26:15.506Z,16.23
2018-09-12T21:28:43.824Z,16.31
2018-09-12T21:31:12.728Z,16.38
2018-09-12T21:33:42.066Z,16.45
2018-09-12T21:36:08.965Z,16.53
2018-09-12T21:38:37.304Z,16.59
2018-09-12T21:41:06.203Z,16.56
2018-09-12T21:43:34.523Z,16.49
2018-09-12T21:46:02.843Z,16.50
2018-09-12T21:48:30.582Z,16.57
2018-09-12T21:50:59.481Z,16.60
2018-09-12T21:53:27.398Z,16.55
2018-09-12T21:55:56.139Z,16.57
2018-09-12T21:58:23.889Z,16.55
2018-09-12T22:00:52.813Z,16.54
2018-09-12T22:03:21.129Z,16.51
2018-09-12T22:05:49.461Z,16.43
2018-09-12T22:08:17.769Z,16.39
2018-09-12T22:10:46.114Z,16.38
2018-09-12T22:13:13.881Z,16.33
2018-09-12T22:15:42.774Z,16.26
2018-09-12T22:18:11.095Z,16.17
2018-09-12T22:20:39.417Z,16.05
2018-09-12T22:23:07.166Z,16.00
2018-09-12T22:25:36.076Z,15.97
2018-09-12T22:28:04.387Z,15.97
2018-09-12T22:30:32.124Z,15.91
2018-09-12T22:33:01.029Z,15.85
2018-09-12T22:35:29.347Z,15.83
2018-09-12T22:37:57.085Z,15.81
2018-09-12T22:40:25.410Z,15.84
2018-09-12T22:42:54.317Z,15.85
2018-09-12T22:45:22.644Z,15.85
2018-09-12T22:47:50.973Z,15.83
2018-09-12T22:50:18.726Z,15.82
2018-09-12T22:52:47.643Z,15.81
2018-09-12T22:55:15.384Z,15.84
2018-09-12T22:57:44.281Z,15.87
2018-09-12T23:00:12.609Z,15.93
2018-09-12T23:02:40.357Z,15.99
2018-09-12T23:05:09.256Z,16.04
2018-09-12T23:07:37.007Z,16.03
2018-09-12T23:10:05.902Z,16.02
2018-09-12T23:12:33.655Z,16.01
2018-09-12T23:15:02.555Z,16.03
2018-09-12T23:17:30.292Z,16.06
2018-09-12T23:19:58.624Z,16.11
2018-09-12T23:22:27.516Z,16.15
2018-09-12T23:24:55.834Z,16.20
2018-09-12T23:27:24.151Z,16.20
2018-09-12T23:29:51.889Z,16.22
2018-09-12T23:32:20.208Z,16.24
2018-09-12T23:34:49.120Z,16.25
2018-09-12T23:37:16.859Z,16.29
2018-09-12T23:39:45.184Z,16.32
2018-09-12T23:42:14.087Z,16.28
2018-09-12T23:44:41.830Z,16.20
2018-09-12T23:47:10.732Z,16.07
2018-09-12T23:49:39.055Z,15.96
2018-09-12T23:52:07.367Z,15.93
2018-09-12T23:54:35.700Z,15.95
2018-09-12T23:57:03.441Z,16.02
2018-09-12T23:59:32.346Z,16.06
